Time;durP1;ratioP1;P1;durP2;ratioP2;P2;SDS_P1;SDS_P2;PMS_P1;PMS_P2;Temp;Humidity;BMP_temperature;BMP_pressure;BME280_temperature;BME280_humidity;BME280_pressure;Samples;Min_cycle;Max_cycle;Signal;HPM_P1;HPM_P2
2023/06/21 00:01:15;;;;;;;;;8.33;6.00;;;;;23.76;57.59;100826.41;6119435;23;46038;-68
2023/06/21 00:03:40;;;;;;;;;9.67;7.67;;;;;23.65;57.14;100813.06;6117809;23;45342;-67
2023/06/21 00:06:06;;;;;;;;;7.67;6.00;;;;;23.78;57.20;100833.63;6120141;23;45303;-68
2023/06/21 00:08:32;;;;;;;;;4.33;4.33;;;;;23.79;57.15;100829.06;6120142;23;45289;-67
2023/06/21 00:10:58;;;;;;;;;5.67;4.33;;;;;23.69;57.24;100812.03;6118641;23;46224;-69
2023/06/21 00:13:23;;;;;;;;;4.33;4.33;;;;;23.76;57.23;100837.31;6120186;23;46590;-67
2023/06/21 00:15:50;;;;;;;;;5.00;5.00;;;;;23.72;57.14;100822.88;6120566;23;45273;-67
2023/06/21 00:18:15;;;;;;;;;7.00;5.67;;;;;23.70;57.43;100822.91;6120390;23;45559;-67
2023/06/21 00:20:41;;;;;;;;;4.00;4.00;;;;;23.69;57.49;100832.03;6119906;23;45370;-67
2023/06/21 00:23:08;;;;;;;;;7.33;6.00;;;;;23.67;57.54;100835.75;6120455;23;45240;-67
2023/06/21 00:25:34;;;;;;;;;5.00;5.00;;;;;23.55;57.62;100818.75;6121058;23;45278;-66
2023/06/21 00:27:59;;;;;;;;;8.67;2.33;;;;;23.66;57.65;100834.84;6121064;23;45489;-68
2023/06/21 00:30:24;;;;;;;;;4.33;4.33;;;;;23.63;57.83;100823.13;6120686;23;45368;-68
2023/06/21 00:32:49;;;;;;;;;11.67;7.67;;;;;23.61;57.94;100831.34;6118320;23;45311;-67
2023/06/21 00:35:15;;;;;;;;;5.67;5.67;;;;;23.56;58.33;100830.59;6119689;23;46164;-66
2023/06/21 00:37:40;;;;;;;;;9.00;7.00;;;;;23.53;58.27;100836.13;6120802;23;45417;-66
2023/06/21 00:40:12;;;;;;;;;7.67;6.33;;;;;23.51;58.53;100830.69;6120175;23;45874;-66
2023/06/21 00:42:37;;;;;;;;;6.00;5.33;;;;;23.51;58.46;100840.69;6119891;23;45252;-66
2023/06/21 00:45:04;;;;;;;;;4.00;3.00;;;;;23.41;58.72;100822.78;6120110;23;45234;-67
2023/06/21 00:47:30;;;;;;;;;4.67;3.67;;;;;23.15;58.60;100778.00;6121972;23;45640;-67
2023/06/21 00:49:57;;;;;;;;;4.00;4.00;;;;;23.36;58.83;100820.16;6120890;23;45491;-66
2023/06/21 00:52:23;;;;;;;;;7.00;7.00;;;;;23.42;58.74;100833.66;6118518;23;45351;-66
2023/06/21 00:54:49;;;;;;;;;4.33;4.33;;;;;23.33;58.98;100832.06;6119828;23;45287;-67
2023/06/21 00:57:14;;;;;;;;;4.67;4.67;;;;;23.38;58.64;100840.13;6119827;23;45289;-67
2023/06/21 00:59:41;;;;;;;;;7.33;6.00;;;;;23.30;58.78;100829.41;6119671;23;45593;-67
2023/06/21 01:02:06;;;;;;;;;3.00;3.00;;;;;23.34;58.73;100847.47;6120899;23;45410;-65
2023/06/21 01:04:34;;;;;;;;;5.67;4.67;;;;;23.33;58.98;100845.69;6121155;23;45439;-66
2023/06/21 01:07:12;;;;;;;;;5.33;4.00;;;;;23.29;59.04;100852.13;6120572;23;45412;-67
2023/06/21 01:09:41;;;;;;;;;5.33;5.00;;;;;23.30;59.05;100855.78;6119577;23;45975;-67
2023/06/21 01:12:20;;;;;;;;;4.00;3.67;;;;;23.28;59.14;100854.91;6119542;23;45348;-66
2023/06/21 01:15:02;;;;;;;;;6.00;5.00;;;;;23.26;59.15;100860.38;6120055;23;45308;-66
2023/06/21 01:17:33;;;;;;;;;8.33;5.33;;;;;23.27;59.19;100867.66;6120595;23;45252;-65
2023/06/21 01:20:01;;;;;;;;;8.33;4.67;;;;;23.24;58.93;100865.00;6121015;23;45273;-67
2023/06/21 01:22:56;;;;;;;;;4.33;4.00;;;;;23.20;58.89;100871.47;6117914;23;45289;-66
2023/06/21 01:25:50;;;;;;;;;6.00;4.00;;;;;23.17;59.44;100872.41;6120684;23;45583;-67
2023/06/21 01:28:31;;;;;;;;;4.00;3.00;;;;;23.13;59.31;100877.97;6119532;23;45388;-67
2023/06/21 01:30:58;;;;;;;;;5.67;4.00;;;;;23.12;59.20;100877.09;6119179;23;45727;-67
2023/06/21 01:33:26;;;;;;;;;4.00;4.00;;;;;23.10;59.30;100873.50;6118905;23;45755;-67
2023/06/21 01:35:54;;;;;;;;;5.00;5.00;;;;;22.96;59.41;100849.25;6119176;23;45247;-66
2023/06/21 01:38:20;;;;;;;;;5.00;3.67;;;;;22.99;59.65;100862.81;6121057;23;45329;-67
2023/06/21 01:40:46;;;;;;;;;6.00;5.00;;;;;23.02;59.61;100878.22;6118013;23;47140;-67
2023/06/21 01:43:13;;;;;;;;;4.67;4.00;;;;;23.01;59.78;100876.41;6119834;23;45403;-66
2023/06/21 01:45:38;;;;;;;;;2.67;2.67;;;;;23.04;59.80;100889.06;6119777;23;45407;-66
2023/06/21 01:48:05;;;;;;;;;4.00;3.00;;;;;23.02;59.66;100891.84;6119434;23;45575;-67
2023/06/21 01:50:31;;;;;;;;;4.00;3.67;;;;;23.02;59.75;100896.41;6118558;23;45571;-66
2023/06/21 01:53:00;;;;;;;;;7.00;4.00;;;;;22.98;59.85;100895.53;6118298;23;45256;-66
2023/06/21 01:55:27;;;;;;;;;7.33;6.67;;;;;22.89;60.30;100883.03;6118512;23;45430;-66
2023/06/21 01:57:53;;;;;;;;;4.67;4.67;;;;;22.99;59.94;100897.34;6118977;23;45363;-68
2023/06/21 02:00:21;;;;;;;;;6.67;4.00;;;;;22.89;59.92;100884.88;6118880;23;45299;-66
2023/06/21 02:02:53;;;;;;;;;5.00;4.00;;;;;22.93;60.05;100895.69;6118500;23;45285;-66
2023/06/21 02:05:20;;;;;;;;;4.67;4.67;;;;;23.00;59.89;100910.94;6118919;23;45444;-66
2023/06/21 02:07:47;;;;;;;;;5.33;4.33;;;;;22.96;59.95;100911.03;6118852;23;45463;-65
2023/06/21 02:10:14;;;;;;;;;4.67;4.67;;;;;22.96;59.80;100914.66;6120424;23;45660;-66
2023/06/21 02:12:40;;;;;;;;;4.00;4.00;;;;;22.95;60.16;100917.41;6120398;23;45636;-66
2023/06/21 02:15:07;;;;;;;;;4.00;4.00;;;;;22.87;60.00;100908.50;6119925;23;45315;-66
2023/06/21 02:17:32;;;;;;;;;5.67;4.00;;;;;22.90;60.11;100912.09;6121540;23;45453;-67
2023/06/21 02:19:58;;;;;;;;;7.00;5.00;;;;;22.94;60.38;100916.53;6120598;23;45988;-65
2023/06/21 02:22:23;;;;;;;;;3.00;3.00;;;;;22.95;60.40;100918.31;6120704;23;45288;-67
2023/06/21 02:24:48;;;;;;;;;7.00;4.00;;;;;22.94;60.26;100913.78;6119022;23;45442;-66
2023/06/21 02:27:14;;;;;;;;;7.33;5.00;;;;;22.95;60.26;100912.88;6118627;23;45689;-67
2023/06/21 02:29:39;;;;;;;;;5.00;5.00;;;;;22.96;60.28;100905.59;6120822;23;45397;-66
2023/06/21 02:32:05;;;;;;;;;5.67;3.00;;;;;22.95;60.28;100898.34;6120647;23;45183;-67
2023/06/21 02:34:30;;;;;;;;;4.67;3.00;;;;;22.95;60.12;100909.22;6121643;23;45289;-66
2023/06/21 02:36:56;;;;;;;;;3.00;3.00;;;;;22.90;60.28;100906.63;6122860;23;45231;-66
2023/06/21 02:39:22;;;;;;;;;4.33;4.33;;;;;22.92;60.47;100910.22;6119118;23;46824;-65
2023/06/21 02:41:48;;;;;;;;;6.00;4.00;;;;;22.91;60.11;100905.69;6120298;23;45236;-66
2023/06/21 02:44:13;;;;;;;;;3.00;3.00;;;;;22.92;60.27;100910.22;6144124;23;45461;-66
2023/06/21 02:46:39;;;;;;;;;3.67;3.67;;;;;22.85;60.40;100908.56;6119391;23;45292;-66
2023/06/21 02:49:04;;;;;;;;;7.00;4.67;;;;;22.85;60.27;100902.19;6120616;23;45418;-67
2023/06/21 02:51:29;;;;;;;;;5.67;5.00;;;;;22.80;60.63;100914.13;6121236;23;45514;-65
2023/06/21 02:53:55;;;;;;;;;6.00;6.00;;;;;22.77;60.70;100911.44;6120484;23;45945;-65
2023/06/21 02:56:20;;;;;;;;;5.00;5.00;;;;;22.65;60.76;100898.06;6121426;23;45390;-66
2023/06/21 02:58:46;;;;;;;;;7.67;4.67;;;;;22.74;60.77;100926.97;6120717;23;45659;-66
2023/06/21 03:01:13;;;;;;;;;5.00;4.00;;;;;22.75;60.95;100923.28;6120389;23;45296;-66
2023/06/21 03:03:43;;;;;;;;;4.67;4.67;;;;;22.71;61.18;100927.91;6120562;23;45160;-66
2023/06/21 03:06:08;;;;;;;;;3.67;3.00;;;;;22.75;61.17;100923.28;6120191;23;45245;-66
2023/06/21 03:08:36;;;;;;;;;3.67;3.67;;;;;22.76;61.10;100928.72;6119154;23;46515;-65
2023/06/21 03:11:02;;;;;;;;;3.00;3.00;;;;;22.74;61.00;100927.84;6120027;23;45476;-66
2023/06/21 03:13:27;;;;;;;;;5.00;5.00;;;;;22.68;61.20;100927.09;6119405;23;45361;-65
2023/06/21 03:15:52;;;;;;;;;5.33;4.00;;;;;22.68;61.29;100936.16;6121026;23;45390;-66
2023/06/21 03:18:18;;;;;;;;;5.67;5.67;;;;;22.63;61.16;100927.19;6119500;23;49479;-65
2023/06/21 03:20:43;;;;;;;;;3.33;3.33;;;;;22.62;61.05;100920.84;6119581;23;45451;-67
2023/06/21 03:23:09;;;;;;;;;3.00;3.00;;;;;22.67;61.31;100925.28;6119568;23;45797;-67
2023/06/21 03:25:34;;;;;;;;;6.00;6.00;;;;;22.63;61.42;100925.34;6120165;23;45295;-66
2023/06/21 03:27:59;;;;;;;;;4.00;4.00;;;;;22.50;61.67;100921.09;6120626;23;51017;-67
2023/06/21 03:30:25;;;;;;;;;7.00;4.00;;;;;22.56;61.73;100937.31;6121407;23;45239;-67
2023/06/21 03:32:50;;;;;;;;;6.00;6.00;;;;;22.41;61.96;100929.44;6120413;23;45313;-67
2023/06/21 03:35:17;;;;;;;;;6.00;5.00;;;;;22.47;62.02;100937.47;6120869;23;45134;-66
2023/06/21 03:37:46;;;;;;;;;3.33;3.33;;;;;22.40;62.16;100924.91;6120390;23;45454;-67
2023/06/21 03:40:13;;;;;;;;;5.00;4.33;;;;;22.41;62.30;100932.19;6119849;23;45324;-66
2023/06/21 03:42:39;;;;;;;;;4.67;4.67;;;;;22.40;62.40;100938.53;6121171;23;45285;-66
2023/06/21 03:45:06;;;;;;;;;4.00;4.00;;;;;22.45;62.33;100947.50;6121041;23;45190;-67
2023/06/21 03:47:31;;;;;;;;;2.67;2.00;;;;;22.48;61.97;100950.16;6120331;23;45495;-66
2023/06/21 03:49:57;;;;;;;;;5.67;5.67;;;;;22.45;62.07;100948.44;6120424;23;45343;-67
2023/06/21 03:52:23;;;;;;;;;7.67;6.00;;;;;22.51;62.15;100963.72;6118893;23;45258;-66
2023/06/21 03:54:49;;;;;;;;;5.00;4.00;;;;;22.53;61.93;100969.16;6121416;23;45301;-66
2023/06/21 03:57:14;;;;;;;;;9.00;5.00;;;;;22.52;62.08;100981.88;6119747;23;46116;-67
2023/06/21 03:59:39;;;;;;;;;5.33;5.00;;;;;22.58;61.95;100989.00;6120040;23;45477;-67
2023/06/21 04:02:05;;;;;;;;;10.00;6.00;;;;;22.61;61.86;100983.50;6119826;23;49589;-66
2023/06/21 04:04:30;;;;;;;;;4.67;4.67;;;;;22.63;61.99;100985.25;6121144;23;45439;-66
2023/06/21 04:06:55;;;;;;;;;5.00;3.67;;;;;22.66;62.01;100991.59;6121292;23;46622;-66
2023/06/21 04:09:21;;;;;;;;;2.00;1.00;;;;;22.60;61.89;100988.06;6120466;23;46799;-66
2023/06/21 04:11:46;;;;;;;;;6.67;5.00;;;;;22.59;61.93;100991.72;6120116;23;45513;-66
2023/06/21 04:14:12;;;;;;;;;5.00;5.00;;;;;22.64;61.81;101006.13;6120310;23;45494;-66
2023/06/21 04:16:37;;;;;;;;;4.33;4.33;;;;;22.66;61.69;101010.66;6120513;23;46325;-66
2023/06/21 04:19:03;;;;;;;;;4.00;4.00;;;;;22.63;62.23;101015.22;6120785;23;45225;-65
2023/06/21 04:21:28;;;;;;;;;5.33;4.67;;;;;22.58;62.19;101008.97;6118052;23;45407;-66
2023/06/21 04:23:54;;;;;;;;;4.67;4.00;;;;;22.61;61.98;101011.63;6121241;23;45414;-65
2023/06/21 04:26:21;;;;;;;;;4.33;4.33;;;;;22.68;61.82;101017.84;6120462;23;46241;-66
2023/06/21 04:28:48;;;;;;;;;5.67;5.67;;;;;22.59;61.79;100999.00;6123457;23;45173;-66
2023/06/21 04:31:13;;;;;;;;;6.33;5.00;;;;;22.69;61.66;101018.78;6121255;23;45320;-66
2023/06/21 04:33:39;;;;;;;;;6.00;6.00;;;;;22.74;61.86;101027.75;6120396;23;45303;-66
2023/06/21 04:36:04;;;;;;;;;3.67;3.67;;;;;22.69;62.03;101018.78;6120627;23;46041;-65
2023/06/21 04:38:31;;;;;;;;;7.00;4.00;;;;;22.64;62.22;101016.13;6120923;23;45354;-67
2023/06/21 04:40:58;;;;;;;;;7.00;7.00;;;;;22.80;61.98;101039.44;6120677;23;45293;-66
2023/06/21 04:43:25;;;;;;;;;5.33;4.00;;;;;22.79;61.82;101048.50;6120739;23;45588;-64
2023/06/21 04:45:51;;;;;;;;;5.00;5.00;;;;;22.86;62.21;101053.84;6119659;23;46061;-65
2023/06/21 04:48:16;;;;;;;;;7.67;5.67;;;;;22.87;61.96;101063.78;6119910;23;45250;-65
2023/06/21 04:50:45;;;;;;;;;5.00;5.00;;;;;22.92;62.04;101075.53;6120140;23;45399;-65
2023/06/21 04:53:13;;;;;;;;;5.00;5.00;;;;;22.93;61.71;101067.34;6120440;23;45474;-66
2023/06/21 04:55:42;;;;;;;;;6.67;4.00;;;;;22.96;61.52;101069.97;6120538;23;46340;-66
2023/06/21 04:58:09;;;;;;;;;6.00;4.67;;;;;22.99;61.77;101071.75;6119677;23;45331;-67
2023/06/21 05:00:35;;;;;;;;;4.33;4.00;;;;;23.00;61.80;101077.16;6119441;23;45181;-66
2023/06/21 05:03:01;;;;;;;;;9.67;8.33;;;;;22.99;61.63;101063.56;6120831;23;45407;-66
2023/06/21 05:05:26;;;;;;;;;5.67;5.33;;;;;22.96;61.17;101053.63;6117948;23;48115;-66
2023/06/21 05:07:52;;;;;;;;;7.33;5.00;;;;;23.07;61.10;101080.69;6120362;23;45583;-65
2023/06/21 05:10:17;;;;;;;;;5.00;4.00;;;;;23.03;60.99;101075.31;6119935;23;45335;-67
2023/06/21 05:12:43;;;;;;;;;4.33;4.00;;;;;23.09;61.34;101083.41;6120362;23;45460;-66
2023/06/21 05:15:09;;;;;;;;;5.00;5.00;;;;;23.05;61.41;101073.44;6120865;23;45392;-65
2023/06/21 05:17:35;;;;;;;;;8.00;8.00;;;;;23.10;61.37;101083.38;6120497;23;45766;-66
2023/06/21 05:20:03;;;;;;;;;9.00;7.33;;;;;23.02;61.41;101090.78;6120779;23;45233;-66
2023/06/21 05:22:28;;;;;;;;;6.00;6.00;;;;;23.03;61.75;101108.91;6120192;23;45427;-66
2023/06/21 05:24:54;;;;;;;;;6.67;6.00;;;;;23.04;61.77;101104.38;6119772;23;50387;-66
2023/06/21 05:27:19;;;;;;;;;9.67;8.33;;;;;23.08;61.56;101108.84;6120359;23;45391;-66
2023/06/21 05:29:45;;;;;;;;;6.00;4.33;;;;;23.09;61.88;101099.75;6121221;23;45594;-66
2023/06/21 05:32:10;;;;;;;;;15.67;15.67;;;;;23.07;61.78;101118.84;6120596;23;45463;-68
2023/06/21 05:34:35;;;;;;;;;15.33;12.00;;;;;23.10;61.68;101112.44;6119851;23;45439;-68
2023/06/21 05:37:01;;;;;;;;;8.33;7.67;;;;;23.09;61.57;101107.94;6119818;23;45310;-65
2023/06/21 05:39:26;;;;;;;;;6.67;6.67;;;;;23.00;61.39;101098.97;6120219;23;45314;-66
2023/06/21 05:41:52;;;;;;;;;7.00;7.00;;;;;23.05;61.39;101109.78;6120699;23;45458;-65
2023/06/21 05:44:17;;;;;;;;;5.00;5.00;;;;;23.08;61.83;101107.03;6119725;23;45415;-66
2023/06/21 05:46:42;;;;;;;;;9.33;7.33;;;;;23.08;61.48;101107.03;6119456;23;45327;-66
2023/06/21 05:49:08;;;;;;;;;11.67;11.67;;;;;22.97;61.81;101092.69;6119958;23;45663;-67
2023/06/21 05:51:33;;;;;;;;;26.67;18.00;;;;;23.00;62.31;101098.09;6117494;23;45433;-66
2023/06/21 05:53:58;;;;;;;;;7.00;7.00;;;;;22.98;61.89;101098.09;6116584;23;46570;-65
2023/06/21 05:56:26;;;;;;;;;9.00;9.00;;;;;22.97;61.81;101101.75;6118560;23;45326;-66
2023/06/21 05:58:52;;;;;;;;;6.00;4.00;;;;;22.98;62.03;101105.38;6117861;23;45252;-65
2023/06/21 06:01:18;;;;;;;;;15.00;11.67;;;;;23.03;62.27;101105.28;6117663;23;45374;-65
2023/06/21 06:03:43;;;;;;;;;9.00;9.00;;;;;23.09;61.76;101107.94;6120022;23;45245;-67
2023/06/21 06:06:08;;;;;;;;;9.33;8.00;;;;;23.10;62.13;101105.19;6119135;23;45387;-65
2023/06/21 06:08:34;;;;;;;;;6.33;6.33;;;;;23.15;61.66;101102.38;6118582;23;45473;-68
2023/06/21 06:11:00;;;;;;;;;10.33;10.00;;;;;22.99;61.92;101080.81;6120640;23;45465;-67
2023/06/21 06:13:28;;;;;;;;;6.00;6.00;;;;;23.05;61.67;101095.25;6119767;23;45760;-66
2023/06/21 06:15:54;;;;;;;;;8.00;7.00;;;;;23.14;61.75;101114.19;6117063;23;45311;-68
2023/06/21 06:18:20;;;;;;;;;25.50;25.50;;;;;23.16;61.95;101115.97;6118147;23;45560;-65
2023/06/21 06:20:46;;;;;;;;;12.00;8.67;;;;;23.20;61.67;101108.63;6118221;23;45349;-67
2023/06/21 06:23:12;;;;;;;;;8.00;8.00;;;;;23.20;61.30;101100.44;6117225;23;46874;-66
2023/06/21 06:25:38;;;;;;;;;31.33;22.00;;;;;23.21;61.19;101099.50;6118095;23;45203;-66
2023/06/21 06:28:04;;;;;;;;;16.33;11.33;;;;;23.30;60.90;101112.06;6119618;23;45348;-65
2023/06/21 06:30:30;;;;;;;;;10.33;10.33;;;;;23.33;61.10;101122.91;6120644;23;45482;-67
2023/06/21 06:32:55;;;;;;;;;9.00;7.33;;;;;23.39;61.12;101120.03;6128992;23;46919;-66
2023/06/21 06:35:21;;;;;;;;;11.33;11.33;;;;;23.44;60.79;101114.47;6119826;23;45285;-67
2023/06/21 06:37:46;;;;;;;;;12.67;11.00;;;;;23.25;60.64;101073.97;6119639;23;45427;-68
2023/06/21 06:40:12;;;;;;;;;18.00;15.33;;;;;23.33;60.36;101085.63;6118735;23;45298;-68
2023/06/21 06:42:37;;;;;;;;;8.00;7.33;;;;;23.59;59.88;101126.88;6117387;23;45427;-67
2023/06/21 06:45:03;;;;;;;;;11.67;9.00;;;;;23.61;59.74;101120.47;6117957;23;45399;-70
2023/06/21 06:47:29;;;;;;;;;10.00;8.00;;;;;23.70;59.08;101124.81;6117079;23;45573;-67
2023/06/21 06:49:55;;;;;;;;;10.00;9.00;;;;;23.74;58.77;101130.19;6120398;23;44919;-66
2023/06/21 06:52:21;;;;;;;;;9.00;8.00;;;;;23.75;58.72;101122.91;6127931;23;45402;-67
2023/06/21 06:54:46;;;;;;;;;11.67;8.67;;;;;23.86;58.55;101122.69;6124161;23;45243;-67
2023/06/21 06:57:11;;;;;;;;;7.33;7.33;;;;;23.89;58.32;101126.25;6119979;23;45290;-67
2023/06/21 06:59:37;;;;;;;;;11.00;9.00;;;;;23.98;57.77;101135.16;6121124;23;45455;-66
2023/06/21 07:02:03;;;;;;;;;7.67;7.00;;;;;24.07;57.07;101129.47;6118000;23;45262;-66
2023/06/21 07:04:32;;;;;;;;;5.33;3.33;;;;;24.08;57.01;101129.44;6120036;23;45296;-67
2023/06/21 07:06:58;;;;;;;;;10.00;7.33;;;;;24.13;56.45;101125.72;6118526;23;45404;-68
2023/06/21 07:09:24;;;;;;;;;6.00;5.00;;;;;24.27;55.97;101146.28;6126519;23;45315;-67
2023/06/21 07:11:50;;;;;;;;;10.00;7.00;;;;;24.31;55.10;101141.63;6119945;23;45998;-67
2023/06/21 07:14:16;;;;;;;;;8.00;8.00;;;;;24.39;55.30;101146.94;6118944;23;45704;-68
2023/06/21 07:16:43;;;;;;;;;8.67;7.33;;;;;24.42;54.95;101139.56;6119132;23;45349;-65
2023/06/21 07:19:09;;;;;;;;;8.00;8.00;;;;;24.43;55.22;101151.38;6121067;23;45529;-67
2023/06/21 07:21:34;;;;;;;;;7.00;5.00;;;;;24.47;54.23;101132.13;6118788;23;46087;-68
2023/06/21 07:23:59;;;;;;;;;3.00;3.00;;;;;24.53;53.71;101130.19;6120578;23;45282;-67
2023/06/21 07:26:25;;;;;;;;;7.67;6.00;;;;;24.60;53.08;101132.75;6119671;23;45254;-67
2023/06/21 07:28:51;;;;;;;;;3.67;3.33;;;;;24.66;53.06;101137.16;6120271;23;45349;-67
2023/06/21 07:31:17;;;;;;;;;8.00;8.00;;;;;24.73;52.90;101146.09;6119504;23;46682;-66
2023/06/21 07:33:42;;;;;;;;;7.00;6.00;;;;;24.59;52.29;101109.09;6119650;23;45181;-66
2023/06/21 07:36:08;;;;;;;;;3.33;3.33;;;;;24.87;52.33;101143.00;6118447;23;45305;-67
2023/06/21 07:38:34;;;;;;;;;8.33;8.33;;;;;24.91;52.06;101151.06;6119779;23;45418;-68
2023/06/21 07:40:59;;;;;;;;;6.33;6.33;;;;;25.00;51.81;101155.41;6120350;23;45255;-67
2023/06/21 07:43:25;;;;;;;;;7.33;7.33;;;;;25.04;51.39;101158.94;6120164;23;44838;-67
2023/06/21 07:45:50;;;;;;;;;12.67;12.67;;;;;25.21;51.29;101156.66;6120095;23;45488;-67
2023/06/21 07:48:16;;;;;;;;;8.67;7.00;;;;;25.29;51.62;101143.69;6127596;23;45136;-68
2023/06/21 07:50:42;;;;;;;;;8.33;6.67;;;;;25.40;51.59;101137.00;6122190;23;45991;-67
2023/06/21 07:53:08;;;;;;;;;7.00;6.67;;;;;25.62;50.94;101140.00;6117747;23;45262;-68
2023/06/21 07:55:33;;;;;;;;;10.33;9.00;;;;;25.81;50.40;101141.22;6124362;23;45444;-66
2023/06/21 07:57:58;;;;;;;;;10.00;8.33;;;;;25.96;50.15;101141.75;6120012;23;45445;-69
2023/06/21 08:00:24;;;;;;;;;14.00;9.33;;;;;25.90;49.80;101149.16;6120143;23;46375;-68
2023/06/21 08:02:51;;;;;;;;;7.00;7.00;;;;;25.89;50.16;101152.84;6120439;23;45400;-68
2023/06/21 08:05:18;;;;;;;;;10.33;7.67;;;;;25.70;50.05;101107.81;6120202;23;45399;-70
2023/06/21 08:07:44;;;;;;;;;8.67;8.00;;;;;26.02;49.81;101153.41;6126777;23;45295;-72
2023/06/21 08:10:10;;;;;;;;;8.67;7.67;;;;;26.07;49.67;101154.16;6118487;23;46010;-68
2023/06/21 08:12:36;;;;;;;;;8.33;7.00;;;;;26.12;49.49;101156.75;6117777;23;45505;-68
2023/06/21 08:15:02;;;;;;;;;5.33;5.33;;;;;26.17;49.73;101164.78;6115984;23;45588;-67
2023/06/21 08:17:28;;;;;;;;;7.00;6.00;;;;;26.14;49.48;101143.00;6117173;23;45415;-67
2023/06/21 08:19:53;;;;;;;;;16.33;8.00;;;;;26.26;49.41;101159.91;6122598;23;45631;-66
2023/06/21 08:22:19;;;;;;;;;7.67;7.00;;;;;26.25;49.38;101146.25;6121457;23;45260;-69
2023/06/21 08:24:44;;;;;;;;;6.00;6.00;;;;;26.39;48.65;101165.00;6121707;23;45783;-68
2023/06/21 08:27:10;;;;;;;;;6.33;6.33;;;;;26.44;48.12;101157.53;6120439;23;45596;-67
2023/06/21 08:29:36;;;;;;;;;8.33;7.33;;;;;26.42;48.57;101149.34;6094436;23;46377;-68
2023/06/21 08:32:03;;;;;;;;;9.33;9.33;;;;;26.40;48.50;101136.63;6118120;23;45317;-68
2023/06/21 08:34:28;;;;;;;;;8.00;8.00;;;;;26.60;48.62;101152.44;6118639;23;45285;-69
2023/06/21 08:36:54;;;;;;;;;14.33;12.00;;;;;26.74;48.27;101160.22;6120621;23;45420;-68
2023/06/21 08:39:19;;;;;;;;;16.33;13.67;;;;;26.76;48.06;101155.56;6117473;23;47318;-69
2023/06/21 08:41:46;;;;;;;;;11.67;10.00;;;;;26.72;47.56;101157.50;6117716;23;45371;-71
2023/06/21 08:44:12;;;;;;;;;9.00;6.00;;;;;26.61;47.68;101154.22;6118639;23;45266;-69
2023/06/21 08:46:39;;;;;;;;;13.00;13.00;;;;;26.61;47.96;101166.09;6120464;23;45253;-67
2023/06/21 08:49:08;;;;;;;;;12.00;10.33;;;;;26.67;47.73;101170.50;6118657;23;47507;-67
2023/06/21 08:51:36;;;;;;;;;7.67;7.00;;;;;26.66;47.74;101158.63;6117931;23;45464;-68
2023/06/21 08:54:07;;;;;;;;;10.33;7.33;;;;;26.50;47.34;101140.88;6120187;23;45324;-70
2023/06/21 08:56:42;;;;;;;;;15.67;14.33;;;;;26.70;47.51;101164.03;6118520;23;45595;-69
2023/06/21 08:59:19;;;;;;;;;10.33;10.00;;;;;26.66;47.49;101154.97;6117233;23;47068;-68
2023/06/21 09:02:15;;;;;;;;;11.33;10.67;;;;;26.81;47.37;101159.94;6119685;23;45329;-69
2023/06/21 09:04:45;;;;;;;;;12.00;7.67;;;;;26.89;46.81;101150.56;6120337;23;45169;-67
2023/06/21 09:07:12;;;;;;;;;9.00;9.00;;;;;27.09;46.26;101177.25;6120731;23;45422;-68
2023/06/21 09:09:39;;;;;;;;;14.33;9.00;;;;;27.10;45.91;101162.59;6120428;23;46043;-69
2023/06/21 09:12:06;;;;;;;;;10.33;8.00;;;;;27.18;45.63;101171.47;6118574;23;45331;-68
2023/06/21 09:14:31;;;;;;;;;7.67;6.33;;;;;27.25;45.48;101166.66;6120294;23;45303;-70
2023/06/21 09:17:00;;;;;;;;;22.00;17.33;;;;;27.19;45.80;101156.78;6119239;23;45307;-69
2023/06/21 09:19:26;;;;;;;;;5.33;5.33;;;;;27.27;44.97;101168.34;6118765;23;46927;-68
2023/06/21 09:21:55;;;;;;;;;7.33;7.33;;;;;27.26;45.06;101166.59;6120602;23;45518;-68
2023/06/21 09:24:21;;;;;;;;;8.00;7.00;;;;;27.31;45.04;101175.56;6118551;23;45241;-68
2023/06/21 09:26:47;;;;;;;;;9.67;7.00;;;;;27.25;45.05;101173.00;6117593;23;45288;-68
2023/06/21 09:29:12;;;;;;;;;13.67;7.33;;;;;27.19;44.99;101151.28;6119210;23;45168;-67
2023/06/21 09:31:38;;;;;;;;;8.00;8.00;;;;;27.14;45.09;101159.72;6119325;23;45557;-70
2023/06/21 09:34:03;;;;;;;;;9.00;6.00;;;;;27.16;44.87;101176.09;6117155;23;45237;-67
2023/06/21 09:36:29;;;;;;;;;7.00;7.00;;;;;27.01;45.11;101156.50;6119262;23;45493;-69
2023/06/21 09:39:09;;;;;;;;;8.00;5.67;;;;;27.06;45.46;101175.53;6119930;23;45648;-70
2023/06/21 09:41:34;;;;;;;;;9.00;8.33;;;;;26.93;45.21;101163.22;6121016;23;45399;-67
2023/06/21 09:44:00;;;;;;;;;15.00;12.00;;;;;27.06;45.32;101182.84;6117400;23;45528;-66
2023/06/21 09:46:25;;;;;;;;;9.67;8.00;;;;;27.03;45.27;101187.50;6119299;23;45257;-69
2023/06/21 09:48:51;;;;;;;;;8.33;7.33;;;;;26.95;44.57;101177.75;6117701;23;46154;-68
2023/06/21 09:51:18;;;;;;;;;9.33;8.33;;;;;26.81;44.80;101183.72;6118316;23;45329;-70
2023/06/21 09:53:47;;;;;;;;;6.67;5.67;;;;;26.80;45.23;101181.94;6118662;23;45390;-67
2023/06/21 09:56:17;;;;;;;;;14.67;12.00;;;;;26.91;45.35;101189.78;6118468;23;45328;-69
2023/06/21 09:58:43;;;;;;;;;7.67;7.00;;;;;27.06;44.97;101181.03;6116713;23;45877;-69
2023/06/21 10:01:12;;;;;;;;;8.33;7.33;;;;;27.09;45.01;101156.25;6119722;23;45267;-68
2023/06/21 10:03:38;;;;;;;;;9.00;6.67;;;;;27.18;44.14;101152.25;6118419;23;45974;-66
2023/06/21 10:06:03;;;;;;;;;9.33;8.00;;;;;27.32;44.33;101182.88;6118528;23;45346;-68
2023/06/21 10:08:38;;;;;;;;;11.00;9.00;;;;;27.32;43.91;101168.22;6118482;23;46424;-68
2023/06/21 10:11:03;;;;;;;;;11.00;8.67;;;;;27.39;43.48;101169.81;6119069;23;45422;-67
2023/06/21 10:13:33;;;;;;;;;6.00;6.00;;;;;27.36;43.39;101176.31;6124532;23;45319;-67
2023/06/21 10:16:03;;;;;;;;;8.33;7.33;;;;;27.31;43.54;101174.69;6127844;23;45091;-69
2023/06/21 10:18:29;;;;;;;;;11.67;7.33;;;;;27.23;43.56;101172.19;6129823;23;45787;-68
2023/06/21 10:21:04;;;;;;;;;11.00;8.67;;;;;27.15;43.55;101172.44;6120170;23;45229;-69
2023/06/21 10:23:33;;;;;;;;;8.67;8.67;;;;;27.13;43.87;101168.00;6121869;23;45284;-66
2023/06/21 10:26:07;;;;;;;;;16.00;9.00;;;;;27.14;43.61;101170.69;6116558;23;45457;-69
2023/06/21 10:28:39;;;;;;;;;10.00;8.67;;;;;27.15;43.66;101168.81;6115852;23;47018;-70
2023/06/21 10:31:07;;;;;;;;;13.00;7.00;;;;;27.14;43.39;101175.25;6116948;23;45326;-69
2023/06/21 10:33:35;;;;;;;;;5.67;4.67;;;;;27.14;43.32;101167.00;6119660;23;45833;-70
2023/06/21 10:36:02;;;;;;;;;7.33;7.33;;;;;27.10;43.40;101157.13;6120457;23;45249;-70
2023/06/21 10:38:42;;;;;;;;;6.33;5.33;;;;;27.18;42.43;101171.47;6120581;23;46277;-69
2023/06/21 10:41:08;;;;;;;;;6.00;6.00;;;;;27.17;42.52;101154.13;6121094;23;45598;-69
2023/06/21 10:43:35;;;;;;;;;8.00;6.67;;;;;27.36;42.45;101165.31;6121328;23;45225;-68
2023/06/21 10:46:05;;;;;;;;;10.67;8.33;;;;;27.47;41.97;101162.19;6119433;23;45523;-68
2023/06/21 10:48:34;;;;;;;;;10.00;9.00;;;;;27.62;41.84;101170.78;6116820;23;47298;-67
2023/06/21 10:51:04;;;;;;;;;4.50;4.50;;;;;27.64;41.38;101167.03;6116497;23;45259;-67
2023/06/21 10:53:34;;;;;;;;;7.00;7.00;;;;;27.60;42.11;101154.38;6117078;23;45497;-69
2023/06/21 10:56:05;;;;;;;;;6.00;6.00;;;;;27.60;41.66;101165.34;6121212;23;45244;-69
2023/06/21 10:58:31;;;;;;;;;7.67;6.33;;;;;27.47;41.70;101151.22;6119314;23;45420;-69
2023/06/21 11:00:58;;;;;;;;;24.33;22.33;;;;;27.61;42.11;101161.66;6121370;23;45179;-69
2023/06/21 11:03:27;;;;;;;;;14.67;9.67;;;;;27.76;41.30;101173.91;6121018;23;45268;-70
2023/06/21 11:06:29;;;;;;;;;8.00;6.00;;;;;27.84;40.91;101159.88;6118106;23;45545;-67
2023/06/21 11:08:56;;;;;;;;;7.33;7.33;;;;;28.00;40.70;101166.59;6142601;23;46348;-67
2023/06/21 11:11:49;;;;;;;;;7.33;5.33;;;;;28.09;40.74;101160.72;6120617;23;45264;-67
2023/06/21 11:14:30;;;;;;;;;7.33;6.00;;;;;28.13;40.13;101156.91;6116885;23;45354;-68
2023/06/21 11:17:14;;;;;;;;;7.67;7.33;;;;;28.11;40.68;101152.41;6120472;23;45277;-69
2023/06/21 11:19:44;;;;;;;;;15.67;13.00;;;;;28.25;40.67;101160.09;6115971;23;45479;-68
2023/06/21 11:22:17;;;;;;;;;13.00;10.33;;;;;28.33;40.40;101163.44;6115859;23;45472;-71